sensor_id;sensor_type;location;lat;lon;timestamp;pressure;altitude;pressure_sealevel;temperature;humidity
14120;BME280;7138;49.246;9.100;2023-03-14T00:00:24;96985.81;;;11.72;100.00
14120;BME280;7138;49.246;9.100;2023-03-14T00:02:51;96978.75;;;11.77;100.00
14120;BME280;7138;49.246;9.100;2023-03-14T00:05:17;96989.00;;;11.80;100.00
14120;BME280;7138;49.246;9.100;2023-03-14T00:07:44;96999.44;;;11.77;100.00
14120;BME280;7138;49.246;9.100;2023-03-14T00:10:13;96997.13;;;11.70;100.00
14120;BME280;7138;49.246;9.100;2023-03-14T00:12:39;96999.78;;;11.67;100.00
14120;BME280;7138;49.246;9.100;2023-03-14T00:15:05;97001.28;;;11.74;100.00
14120;BME280;7138;49.246;9.100;2023-03-14T00:17:33;97014.94;;;11.79;100.00
14120;BME280;7138;49.246;9.100;2023-03-14T00:19:59;97013.91;;;11.84;100.00
14120;BME280;7138;49.246;9.100;2023-03-14T00:22:30;97019.56;;;11.95;100.00
14120;BME280;7138;49.246;9.100;2023-03-14T00:24:57;97028.72;;;12.05;100.00
14120;BME280;7138;49.246;9.100;2023-03-14T00:27:22;97027.84;;;12.07;100.00
14120;BME280;7138;49.246;9.100;2023-03-14T00:29:48;97026.94;;;12.07;100.00
14120;BME280;7138;49.246;9.100;2023-03-14T00:32:14;97025.28;;;12.05;99.53
14120;BME280;7138;49.246;9.100;2023-03-14T00:34:40;97022.59;;;12.08;99.73
14120;BME280;7138;49.246;9.100;2023-03-14T00:37:05;97027.63;;;12.13;99.66
14120;BME280;7138;49.246;9.100;2023-03-14T00:39:31;97018.81;;;12.18;98.96
14120;BME280;7138;49.246;9.100;2023-03-14T00:41:58;97005.66;;;12.23;98.89
14120;BME280;7138;49.246;9.100;2023-03-14T00:44:24;97015.03;;;12.27;98.24
14120;BME280;7138;49.246;9.100;2023-03-14T00:46:50;97019.47;;;12.23;98.16
14120;BME280;7138;49.246;9.100;2023-03-14T00:49:15;97023.81;;;12.23;98.57
14120;BME280;7138;49.246;9.100;2023-03-14T00:51:41;97016.03;;;12.23;98.46
14120;BME280;7138;49.246;9.100;2023-03-14T00:54:07;97023.81;;;12.23;98.65
14120;BME280;7138;49.246;9.100;2023-03-14T00:56:33;97016.09;;;12.21;98.79
14120;BME280;7138;49.246;9.100;2023-03-14T00:59:00;97017.78;;;12.22;98.81
14120;BME280;7138;49.246;9.100;2023-03-14T01:01:25;97009.28;;;12.19;98.89
14120;BME280;7138;49.246;9.100;2023-03-14T01:03:52;97016.09;;;12.21;99.67
14120;BME280;7138;49.246;9.100;2023-03-14T01:06:20;97010.00;;;12.22;98.88
14120;BME280;7138;49.246;9.100;2023-03-14T01:08:47;97018.69;;;12.21;99.37
14120;BME280;7138;49.246;9.100;2023-03-14T01:11:15;97017.88;;;12.19;99.82
14120;BME280;7138;49.246;9.100;2023-03-14T01:13:42;97001.13;;;12.04;99.50
14120;BME280;7138;49.246;9.100;2023-03-14T01:16:11;97013.75;;;12.14;99.53
14120;BME280;7138;49.246;9.100;2023-03-14T01:18:38;97004.41;;;12.10;100.00
14120;BME280;7138;49.246;9.100;2023-03-14T01:21:12;97001.88;;;12.08;100.00
14120;BME280;7138;49.246;9.100;2023-03-14T01:23:38;96998.53;;;12.04;100.00
14120;BME280;7138;49.246;9.100;2023-03-14T01:26:04;96995.72;;;12.11;100.00
14120;BME280;7138;49.246;9.100;2023-03-14T01:28:30;96991.41;;;12.11;100.00
14120;BME280;7138;49.246;9.100;2023-03-14T01:30:55;96993.41;;;12.03;100.00
14120;BME280;7138;49.246;9.100;2023-03-14T01:33:22;96992.47;;;12.05;100.00
14120;BME280;7138;49.246;9.100;2023-03-14T01:35:49;96982.09;;;12.05;100.00
14120;BME280;7138;49.246;9.100;2023-03-14T01:38:15;96974.31;;;12.05;100.00
14120;BME280;7138;49.246;9.100;2023-03-14T01:40:42;96947.69;;;12.02;100.00
14120;BME280;7138;49.246;9.100;2023-03-14T01:43:14;96931.88;;;12.10;100.00
14120;BME280;7138;49.246;9.100;2023-03-14T01:48:58;96927.41;;;12.13;100.00
14120;BME280;7138;49.246;9.100;2023-03-14T01:51:29;96923.81;;;12.17;100.00
14120;BME280;7138;49.246;9.100;2023-03-14T01:54:00;96921.34;;;12.14;100.00
14120;BME280;7138;49.246;9.100;2023-03-14T01:56:27;96917.00;;;12.15;100.00
14120;BME280;7138;49.246;9.100;2023-03-14T01:58:54;96908.50;;;12.11;100.00
14120;BME280;7138;49.246;9.100;2023-03-14T02:01:21;96893.91;;;12.09;100.00
14120;BME280;7138;49.246;9.100;2023-03-14T02:03:52;96897.47;;;12.06;100.00
14120;BME280;7138;49.246;9.100;2023-03-14T02:06:23;96898.53;;;12.00;100.00
14120;BME280;7138;49.246;9.100;2023-03-14T02:08:50;96903.59;;;12.03;100.00
14120;BME280;7138;49.246;9.100;2023-03-14T02:11:17;96900.09;;;12.04;100.00
14120;BME280;7138;49.246;9.100;2023-03-14T02:13:43;96894.91;;;12.04;100.00
14120;BME280;7138;49.246;9.100;2023-03-14T02:16:10;96893.91;;;12.09;100.00
14120;BME280;7138;49.246;9.100;2023-03-14T02:18:36;96901.13;;;12.00;100.00
14120;BME280;7138;49.246;9.100;2023-03-14T02:21:06;96895.03;;;12.01;100.00
14120;BME280;7138;49.246;9.100;2023-03-14T02:23:41;96893.56;;;11.94;100.00
14120;BME280;7138;49.246;9.100;2023-03-14T02:26:14;96888.38;;;11.94;100.00
14120;BME280;7138;49.246;9.100;2023-03-14T02:28:43;96893.47;;;11.97;100.00
14120;BME280;7138;49.246;9.100;2023-03-14T02:31:09;96887.16;;;12.04;100.00
14120;BME280;7138;49.246;9.100;2023-03-14T02:33:36;96889.63;;;12.07;100.00
14120;BME280;7138;49.246;9.100;2023-03-14T02:36:06;96895.53;;;12.11;100.00
14120;BME280;7138;49.246;9.100;2023-03-14T02:38:35;96876.19;;;12.21;100.00
14120;BME280;7138;49.246;9.100;2023-03-14T02:41:03;96867.81;;;12.13;100.00
14120;BME280;7138;49.246;9.100;2023-03-14T02:43:29;96863.28;;;12.20;100.00
14120;BME280;7138;49.246;9.100;2023-03-14T02:45:56;96858.28;;;12.15;100.00
14120;BME280;7138;49.246;9.100;2023-03-14T02:48:25;96871.97;;;12.19;100.00
14120;BME280;7138;49.246;9.100;2023-03-14T02:50:53;96878.06;;;12.16;100.00
14120;BME280;7138;49.246;9.100;2023-03-14T02:53:24;96873.59;;;12.21;100.00
14120;BME280;7138;49.246;9.100;2023-03-14T02:55:50;96855.34;;;12.24;100.00
14120;BME280;7138;49.246;9.100;2023-03-14T02:58:17;96858.91;;;12.22;100.00
14120;BME280;7138;49.246;9.100;2023-03-14T03:00:43;96852.00;;;12.21;99.54
14120;BME280;7138;49.246;9.100;2023-03-14T03:03:10;96859.44;;;12.30;99.24
14120;BME280;7138;49.246;9.100;2023-03-14T03:05:36;96857.75;;;12.29;99.51
14120;BME280;7138;49.246;9.100;2023-03-14T03:08:02;96858.66;;;12.28;99.25
14120;BME280;7138;49.246;9.100;2023-03-14T03:10:28;96848.97;;;12.33;99.07
14120;BME280;7138;49.246;9.100;2023-03-14T03:12:54;96841.00;;;12.37;99.21
14120;BME280;7138;49.246;9.100;2023-03-14T03:15:20;96831.91;;;12.27;99.01
14120;BME280;7138;49.246;9.100;2023-03-14T03:17:46;96837.88;;;12.29;99.53
14120;BME280;7138;49.246;9.100;2023-03-14T03:20:13;96839.84;;;12.23;99.76
14120;BME280;7138;49.246;9.100;2023-03-14T03:22:39;96829.34;;;12.26;99.60
14120;BME280;7138;49.246;9.100;2023-03-14T03:25:06;96827.84;;;12.20;99.59
14120;BME280;7138;49.246;9.100;2023-03-14T03:27:34;96821.03;;;12.18;98.73
14120;BME280;7138;49.246;9.100;2023-03-14T03:30:00;96817.09;;;12.07;99.64
14120;BME280;7138;49.246;9.100;2023-03-14T03:32:26;96808.59;;;12.04;99.32
14120;BME280;7138;49.246;9.100;2023-03-14T03:34:52;96820.94;;;11.97;99.27
14120;BME280;7138;49.246;9.100;2023-03-14T03:37:19;96815.25;;;11.88;99.75
14120;BME280;7138;49.246;9.100;2023-03-14T03:39:45;96818.84;;;11.84;99.19
14120;BME280;7138;49.246;9.100;2023-03-14T03:42:11;96811.34;;;11.76;99.53
14120;BME280;7138;49.246;9.100;2023-03-14T03:44:37;96818.38;;;11.73;100.00
14120;BME280;7138;49.246;9.100;2023-03-14T03:47:02;96804.00;;;11.64;99.60
14120;BME280;7138;49.246;9.100;2023-03-14T03:49:28;96818.78;;;11.61;99.92
14120;BME280;7138;49.246;9.100;2023-03-14T03:51:54;96813.75;;;11.56;99.99
14120;BME280;7138;49.246;9.100;2023-03-14T03:54:21;96814.59;;;11.57;99.42
14120;BME280;7138;49.246;9.100;2023-03-14T03:56:47;96814.63;;;11.55;99.46
14120;BME280;7138;49.246;9.100;2023-03-14T03:59:13;96801.69;;;11.55;100.00
14120;BME280;7138;49.246;9.100;2023-03-14T04:01:38;96800.34;;;11.45;99.60
14120;BME280;7138;49.246;9.100;2023-03-14T04:04:04;96804.56;;;11.47;98.89
14120;BME280;7138;49.246;9.100;2023-03-14T04:06:30;96795.28;;;11.42;99.01
14120;BME280;7138;49.246;9.100;2023-03-14T04:08:56;96785.56;;;11.48;99.07
14120;BME280;7138;49.246;9.100;2023-03-14T04:11:24;96784.09;;;11.41;98.17
14120;BME280;7138;49.246;9.100;2023-03-14T04:13:49;96797.06;;;11.40;98.71
14120;BME280;7138;49.246;9.100;2023-03-14T04:16:17;96785.06;;;11.37;98.19
14120;BME280;7138;49.246;9.100;2023-03-14T04:18:44;96789.50;;;11.34;97.58
14120;BME280;7138;49.246;9.100;2023-03-14T04:21:09;96785.47;;;11.27;97.71
14120;BME280;7138;49.246;9.100;2023-03-14T04:23:35;96790.53;;;11.30;98.01
14120;BME280;7138;49.246;9.100;2023-03-14T04:26:01;96786.22;;;11.30;97.38
14120;BME280;7138;49.246;9.100;2023-03-14T04:28:28;96790.53;;;11.30;96.59
14120;BME280;7138;49.246;9.100;2023-03-14T04:30:53;96786.03;;;11.35;97.02
14120;BME280;7138;49.246;9.100;2023-03-14T04:33:19;96781.84;;;11.31;96.48
14120;BME280;7138;49.246;9.100;2023-03-14T04:35:45;96771.50;;;11.31;96.42
14120;BME280;7138;49.246;9.100;2023-03-14T04:38:12;96779.22;;;11.32;95.81
14120;BME280;7138;49.246;9.100;2023-03-14T04:40:38;96752.56;;;11.30;95.87
14120;BME280;7138;49.246;9.100;2023-03-14T04:43:05;96771.72;;;11.49;95.38
14120;BME280;7138;49.246;9.100;2023-03-14T04:45:32;96762.09;;;11.53;94.42
14120;BME280;7138;49.246;9.100;2023-03-14T04:47:58;96764.66;;;11.55;93.83
14120;BME280;7138;49.246;9.100;2023-03-14T04:50:23;96765.66;;;11.50;93.23
14120;BME280;7138;49.246;9.100;2023-03-14T04:52:49;96767.38;;;11.50;93.21
14120;BME280;7138;49.246;9.100;2023-03-14T04:55:15;96758.03;;;11.46;91.64
14120;BME280;7138;49.246;9.100;2023-03-14T04:57:41;96759.06;;;11.42;91.73
14120;BME280;7138;49.246;9.100;2023-03-14T05:00:07;96747.63;;;11.47;91.90
14120;BME280;7138;49.246;9.100;2023-03-14T05:02:35;96752.75;;;11.49;92.43
14120;BME280;7138;49.246;9.100;2023-03-14T05:05:00;96748.63;;;11.43;91.24
14120;BME280;7138;49.246;9.100;2023-03-14T05:07:26;96748.81;;;11.39;90.86
14120;BME280;7138;49.246;9.100;2023-03-14T05:09:52;96745.94;;;11.46;90.32
14120;BME280;7138;49.246;9.100;2023-03-14T05:12:19;96733.75;;;11.50;90.05
14120;BME280;7138;49.246;9.100;2023-03-14T05:14:44;96736.66;;;11.41;90.00
14120;BME280;7138;49.246;9.100;2023-03-14T05:17:10;96734.72;;;11.46;89.21
14120;BME280;7138;49.246;9.100;2023-03-14T05:19:38;96736.44;;;11.47;90.03
14120;BME280;7138;49.246;9.100;2023-03-14T05:22:03;96738.88;;;11.51;89.76
14120;BME280;7138;49.246;9.100;2023-03-14T05:24:29;96732.00;;;11.50;89.43
14120;BME280;7138;49.246;9.100;2023-03-14T05:26:55;96734.41;;;11.55;89.79
14120;BME280;7138;49.246;9.100;2023-03-14T05:29:21;96732.50;;;11.60;89.34
14120;BME280;7138;49.246;9.100;2023-03-14T05:31:46;96734.13;;;11.63;89.99
14120;BME280;7138;49.246;9.100;2023-03-14T05:34:12;96733.19;;;11.65;90.10
14120;BME280;7138;49.246;9.100;2023-03-14T05:36:39;96726.16;;;11.69;89.91
14120;BME280;7138;49.246;9.100;2023-03-14T05:39:05;96729.56;;;11.71;89.92
14120;BME280;7138;49.246;9.100;2023-03-14T05:41:30;96725.97;;;11.75;89.99
14120;BME280;7138;49.246;9.100;2023-03-14T05:43:56;96735.34;;;11.77;90.14
14120;BME280;7138;49.246;9.100;2023-03-14T05:46:22;96734.28;;;11.83;90.11
14120;BME280;7138;49.246;9.100;2023-03-14T05:48:47;96749.78;;;11.84;89.78
14120;BME280;7138;49.246;9.100;2023-03-14T05:51:13;96736.72;;;11.87;88.94
14120;BME280;7138;49.246;9.100;2023-03-14T05:53:40;96740.03;;;11.91;89.90
14120;BME280;7138;49.246;9.100;2023-03-14T05:56:07;96733.88;;;11.93;89.30
14120;BME280;7138;49.246;9.100;2023-03-14T05:58:33;96735.47;;;11.97;89.63
14120;BME280;7138;49.246;9.100;2023-03-14T06:01:01;96739.91;;;11.94;90.14
14120;BME280;7138;49.246;9.100;2023-03-14T06:03:27;96734.78;;;11.92;90.17
14120;BME280;7138;49.246;9.100;2023-03-14T06:05:53;96734.78;;;11.92;89.88
14120;BME280;7138;49.246;9.100;2023-03-14T06:08:18;96745.09;;;11.94;89.77
14120;BME280;7138;49.246;9.100;2023-03-14T06:10:45;96736.63;;;11.89;89.96
14120;BME280;7138;49.246;9.100;2023-03-14T06:13:11;96740.53;;;11.77;88.60
14120;BME280;7138;49.246;9.100;2023-03-14T06:15:37;96742.34;;;11.75;89.34
14120;BME280;7138;49.246;9.100;2023-03-14T06:18:03;96741.34;;;11.79;89.95
14120;BME280;7138;49.246;9.100;2023-03-14T06:20:28;96747.75;;;11.68;89.26
14120;BME280;7138;49.246;9.100;2023-03-14T06:22:54;96742.66;;;11.66;90.13
14120;BME280;7138;49.246;9.100;2023-03-14T06:25:20;96734.75;;;11.69;89.15
14120;BME280;7138;49.246;9.100;2023-03-14T06:27:47;96731.44;;;11.66;89.54
14120;BME280;7138;49.246;9.100;2023-03-14T06:30:13;96735.09;;;11.60;89.73
14120;BME280;7138;49.246;9.100;2023-03-14T06:32:39;96727.34;;;11.60;89.50
14120;BME280;7138;49.246;9.100;2023-03-14T06:35:05;96720.34;;;11.62;89.50
14120;BME280;7138;49.246;9.100;2023-03-14T06:37:34;96714.53;;;11.56;88.53
14120;BME280;7138;49.246;9.100;2023-03-14T06:39:59;96713.59;;;11.58;89.86
14120;BME280;7138;49.246;9.100;2023-03-14T06:42:25;96713.59;;;11.58;90.02
14120;BME280;7138;49.246;9.100;2023-03-14T06:44:52;96710.84;;;11.63;90.26
14120;BME280;7138;49.246;9.100;2023-03-14T06:47:18;96719.56;;;11.60;90.06
14120;BME280;7138;49.246;9.100;2023-03-14T06:49:44;96714.50;;;11.57;89.22
14120;BME280;7138;49.246;9.100;2023-03-14T06:52:09;96702.97;;;11.66;88.62
14120;BME280;7138;49.246;9.100;2023-03-14T06:54:35;96704.09;;;11.59;88.29
14120;BME280;7138;49.246;9.100;2023-03-14T06:57:00;96701.22;;;11.66;88.77
14120;BME280;7138;49.246;9.100;2023-03-14T06:59:26;96703.75;;;11.68;88.72
14120;BME280;7138;49.246;9.100;2023-03-14T07:01:53;96701.03;;;11.72;88.13
14120;BME280;7138;49.246;9.100;2023-03-14T07:04:19;96703.63;;;11.72;88.88
14120;BME280;7138;49.246;9.100;2023-03-14T07:06:44;96702.72;;;11.73;87.56
14120;BME280;7138;49.246;9.100;2023-03-14T07:09:12;96693.66;;;11.85;88.87
14120;BME280;7138;49.246;9.100;2023-03-14T07:11:37;96702.03;;;11.91;87.73
14120;BME280;7138;49.246;9.100;2023-03-14T07:14:03;96697.44;;;11.98;86.85
14120;BME280;7138;49.246;9.100;2023-03-14T07:16:29;96696.63;;;11.97;86.65
14120;BME280;7138;49.246;9.100;2023-03-14T07:18:59;96696.38;;;12.03;86.81
14120;BME280;7138;49.246;9.100;2023-03-14T07:21:26;96708.13;;;12.12;87.29
14120;BME280;7138;49.246;9.100;2023-03-14T07:23:51;96711.56;;;12.13;87.05
14120;BME280;7138;49.246;9.100;2023-03-14T07:26:17;96703.84;;;12.11;86.54
14120;BME280;7138;49.246;9.100;2023-03-14T07:28:43;96701.25;;;12.11;86.83
14120;BME280;7138;49.246;9.100;2023-03-14T07:31:09;96695.91;;;12.16;86.55
14120;BME280;7138;49.246;9.100;2023-03-14T07:33:34;96701.09;;;12.16;85.97
14120;BME280;7138;49.246;9.100;2023-03-14T07:36:02;96702.88;;;12.14;86.28
14120;BME280;7138;49.246;9.100;2023-03-14T07:38:28;96702.09;;;12.12;86.66
14120;BME280;7138;49.246;9.100;2023-03-14T07:40:58;96704.09;;;12.27;86.60
14120;BME280;7138;49.246;9.100;2023-03-14T07:43:23;96706.59;;;12.28;85.84
14120;BME280;7138;49.246;9.100;2023-03-14T07:45:49;96713.59;;;12.26;84.97
14120;BME280;7138;49.246;9.100;2023-03-14T07:48:15;96704.97;;;12.26;86.00
14120;BME280;7138;49.246;9.100;2023-03-14T07:50:40;96700.75;;;12.45;86.13
14120;BME280;7138;49.246;9.100;2023-03-14T07:53:07;96714.84;;;12.80;88.61
14120;BME280;7138;49.246;9.100;2023-03-14T07:55:33;96707.81;;;13.03;85.38
14120;BME280;7138;49.246;9.100;2023-03-14T07:57:59;96719.69;;;13.29;86.81
14120;BME280;7138;49.246;9.100;2023-03-14T08:00:25;96725.06;;;13.45;86.63
14120;BME280;7138;49.246;9.100;2023-03-14T08:02:51;96726.81;;;13.44;87.34
14120;BME280;7138;49.246;9.100;2023-03-14T08:05:16;96727.88;;;13.40;87.45
14120;BME280;7138;49.246;9.100;2023-03-14T08:07:42;96728.97;;;13.35;87.66
14120;BME280;7138;49.246;9.100;2023-03-14T08:10:10;96733.75;;;13.25;85.60
14120;BME280;7138;49.246;9.100;2023-03-14T08:12:36;96722.38;;;13.28;85.49
14120;BME280;7138;49.246;9.100;2023-03-14T08:15:02;96721.03;;;13.19;84.99
14120;BME280;7138;49.246;9.100;2023-03-14T08:17:27;96710.16;;;13.30;85.06
14120;BME280;7138;49.246;9.100;2023-03-14T08:19:53;96701.13;;;13.38;85.51
14120;BME280;7138;49.246;9.100;2023-03-14T08:22:19;96709.16;;;13.52;83.48
14120;BME280;7138;49.246;9.100;2023-03-14T08:24:44;96705.44;;;13.58;83.11
14120;BME280;7138;49.246;9.100;2023-03-14T08:27:11;96699.97;;;13.45;81.84
14120;BME280;7138;49.246;9.100;2023-03-14T08:29:37;96700.53;;;13.52;82.79
14120;BME280;7138;49.246;9.100;2023-03-14T08:32:03;96704.88;;;13.51;81.93
14120;BME280;7138;49.246;9.100;2023-03-14T08:34:29;96705.06;;;13.47;83.28
14120;BME280;7138;49.246;9.100;2023-03-14T08:36:54;96719.38;;;13.37;84.27
14120;BME280;7138;49.246;9.100;2023-03-14T08:39:22;96731.00;;;13.28;85.22
14120;BME280;7138;49.246;9.100;2023-03-14T08:41:49;96729.97;;;13.12;86.47
14120;BME280;7138;49.246;9.100;2023-03-14T08:44:16;96741.00;;;12.95;86.83
14120;BME280;7138;49.246;9.100;2023-03-14T08:46:41;96732.19;;;12.79;85.53
14120;BME280;7138;49.246;9.100;2023-03-14T08:49:07;96748.31;;;12.86;86.80
14120;BME280;7138;49.246;9.100;2023-03-14T08:51:33;96743.34;;;12.81;86.31
14120;BME280;7138;49.246;9.100;2023-03-14T08:53:59;96739.97;;;12.79;86.42
14120;BME280;7138;49.246;9.100;2023-03-14T08:56:24;96744.63;;;12.71;86.26
14120;BME280;7138;49.246;9.100;2023-03-14T08:58:50;96750.59;;;12.73;87.26
14120;BME280;7138;49.246;9.100;2023-03-14T09:01:17;96749.41;;;12.60;86.71
14120;BME280;7138;49.246;9.100;2023-03-14T09:03:44;96758.50;;;12.48;88.24
14120;BME280;7138;49.246;9.100;2023-03-14T09:06:11;96753.97;;;12.53;87.44
14120;BME280;7138;49.246;9.100;2023-03-14T09:08:37;96752.41;;;12.49;87.81
14120;BME280;7138;49.246;9.100;2023-03-14T09:11:02;96761.22;;;12.45;87.92
14120;BME280;7138;49.246;9.100;2023-03-14T09:13:28;96755.91;;;12.48;87.58
14120;BME280;7138;49.246;9.100;2023-03-14T09:15:55;96759.41;;;12.47;88.30
14120;BME280;7138;49.246;9.100;2023-03-14T09:18:22;96765.38;;;12.49;88.59
14120;BME280;7138;49.246;9.100;2023-03-14T09:20:48;96758.91;;;12.38;88.74
14120;BME280;7138;49.246;9.100;2023-03-14T09:23:14;96760.00;;;12.54;89.11
14120;BME280;7138;49.246;9.100;2023-03-14T09:25:40;96764.47;;;12.50;88.80
14120;BME280;7138;49.246;9.100;2023-03-14T09:28:06;96763.00;;;12.65;88.90
14120;BME280;7138;49.246;9.100;2023-03-14T09:30:31;96761.63;;;12.78;89.04
14120;BME280;7138;49.246;9.100;2023-03-14T09:32:57;96753.81;;;13.00;88.83
14120;BME280;7138;49.246;9.100;2023-03-14T09:35:26;96748.84;;;13.16;88.80
14120;BME280;7138;49.246;9.100;2023-03-14T09:37:51;96748.59;;;13.22;87.03
14120;BME280;7138;49.246;9.100;2023-03-14T09:40:18;96763.06;;;13.05;86.20
14120;BME280;7138;49.246;9.100;2023-03-14T09:42:48;96771.81;;;13.25;87.20
14120;BME280;7138;49.246;9.100;2023-03-14T09:45:18;96781.09;;;13.30;88.21
14120;BME280;7138;49.246;9.100;2023-03-14T09:47:49;96788.19;;;13.05;88.76
14120;BME280;7138;49.246;9.100;2023-03-14T09:50:15;96792.75;;;12.98;90.81
14120;BME280;7138;49.246;9.100;2023-03-14T09:52:45;96786.34;;;12.87;92.19
14120;BME280;7138;49.246;9.100;2023-03-14T09:55:15;96785.47;;;12.86;93.78
14120;BME280;7138;49.246;9.100;2023-03-14T09:57:42;96776.84;;;12.86;92.91
14120;BME280;7138;49.246;9.100;2023-03-14T10:00:15;96784.59;;;12.87;91.81
14120;BME280;7138;49.246;9.100;2023-03-14T10:02:42;96771.13;;;12.99;91.94
14120;BME280;7138;49.246;9.100;2023-03-14T10:05:14;96768.53;;;12.99;90.63
14120;BME280;7138;49.246;9.100;2023-03-14T10:07:42;96777.16;;;13.00;90.20
14120;BME280;7138;49.246;9.100;2023-03-14T10:10:10;96765.09;;;12.99;90.58
14120;BME280;7138;49.246;9.100;2023-03-14T10:12:37;96764.31;;;12.97;89.54
14120;BME280;7138;49.246;9.100;2023-03-14T10:15:06;96777.28;;;12.97;89.59
14120;BME280;7138;49.246;9.100;2023-03-14T10:17:38;96773.34;;;13.08;90.12
14120;BME280;7138;49.246;9.100;2023-03-14T10:20:05;96778.03;;;13.21;89.86
14120;BME280;7138;49.246;9.100;2023-03-14T10:22:34;96782.63;;;13.54;90.47
14120;BME280;7138;49.246;9.100;2023-03-14T10:25:24;96780.22;;;13.70;88.89
14120;BME280;7138;49.246;9.100;2023-03-14T10:27:50;96784.44;;;13.73;88.33
14120;BME280;7138;49.246;9.100;2023-03-14T10:30:33;96791.25;;;13.75;87.66
14120;BME280;7138;49.246;9.100;2023-03-14T10:33:07;96790.13;;;13.81;87.81
14120;BME280;7138;49.246;9.100;2023-03-14T10:35:34;96799.56;;;13.63;86.56
14120;BME280;7138;49.246;9.100;2023-03-14T10:38:01;96800.59;;;13.59;87.59
14120;BME280;7138;49.246;9.100;2023-03-14T10:40:30;96794.53;;;13.40;90.82
14120;BME280;7138;49.246;9.100;2023-03-14T10:42:58;96803.47;;;13.33;90.88
14120;BME280;7138;49.246;9.100;2023-03-14T10:45:31;96797.44;;;13.12;90.87
14120;BME280;7138;49.246;9.100;2023-03-14T10:47:59;96790.78;;;13.05;91.20
14120;BME280;7138;49.246;9.100;2023-03-14T10:50:26;96796.75;;;13.07;91.15
14120;BME280;7138;49.246;9.100;2023-03-14T10:52:53;96805.09;;;12.93;90.78
14120;BME280;7138;49.246;9.100;2023-03-14T10:55:19;96799.31;;;12.65;90.77
14120;BME280;7138;49.246;9.100;2023-03-14T10:57:46;96801.84;;;12.67;92.72
14120;BME280;7138;49.246;9.100;2023-03-14T11:00:15;96804.94;;;12.54;93.56
14120;BME280;7138;49.246;9.100;2023-03-14T11:02:55;96788.16;;;12.41;93.71
14120;BME280;7138;49.246;9.100;2023-03-14T11:05:30;96790.50;;;12.47;95.86
14120;BME280;7138;49.246;9.100;2023-03-14T11:08:01;96799.38;;;12.42;96.11
14120;BME280;7138;49.246;9.100;2023-03-14T11:10:32;96795.28;;;12.36;97.87
14120;BME280;7138;49.246;9.100;2023-03-14T11:13:11;96789.91;;;12.41;98.56
14120;BME280;7138;49.246;9.100;2023-03-14T11:15:42;96793.53;;;12.37;99.12
14120;BME280;7138;49.246;9.100;2023-03-14T11:18:43;96797.78;;;12.38;99.44
14120;BME280;7138;49.246;9.100;2023-03-14T11:21:18;96785.06;;;12.32;99.86
14120;BME280;7138;49.246;9.100;2023-03-14T11:23:54;96795.91;;;12.20;98.44
14120;BME280;7138;49.246;9.100;2023-03-14T11:26:29;96799.53;;;12.16;98.37
14120;BME280;7138;49.246;9.100;2023-03-14T11:29:02;96802.47;;;12.07;100.00
14120;BME280;7138;49.246;9.100;2023-03-14T11:31:35;96804.69;;;11.92;100.00
14120;BME280;7138;49.246;9.100;2023-03-14T11:34:10;96809.38;;;11.83;100.00
14120;BME280;7138;49.246;9.100;2023-03-14T11:36:44;96806.78;;;11.83;100.00
14120;BME280;7138;49.246;9.100;2023-03-14T11:39:14;96800.81;;;11.81;100.00
14120;BME280;7138;49.246;9.100;2023-03-14T11:41:43;96807.19;;;11.72;100.00
14120;BME280;7138;49.246;9.100;2023-03-14T11:44:17;96790.47;;;11.56;100.00
14120;BME280;7138;49.246;9.100;2023-03-14T11:46:48;96805.22;;;11.54;100.00
14120;BME280;7138;49.246;9.100;2023-03-14T11:49:24;96813.84;;;11.53;100.00
14120;BME280;7138;49.246;9.100;2023-03-14T11:51:56;96809.75;;;11.47;100.00
14120;BME280;7138;49.246;9.100;2023-03-14T11:54:31;96804.16;;;11.35;100.00
14120;BME280;7138;49.246;9.100;2023-03-14T11:57:01;96818.28;;;11.25;100.00
14120;BME280;7138;49.246;9.100;2023-03-14T11:59:32;96808.63;;;11.30;100.00
14120;BME280;7138;49.246;9.100;2023-03-14T12:02:03;96817.34;;;11.27;100.00
14120;BME280;7138;49.246;9.100;2023-03-14T12:04:40;96820.09;;;11.23;100.00
14120;BME280;7138;49.246;9.100;2023-03-14T12:07:13;96816.50;;;11.27;100.00
14120;BME280;7138;49.246;9.100;2023-03-14T12:09:40;96837.78;;;11.35;100.00
14120;BME280;7138;49.246;9.100;2023-03-14T12:12:10;96839.72;;;11.28;100.00
14120;BME280;7138;49.246;9.100;2023-03-14T12:14:44;96832.22;;;11.21;100.00
14120;BME280;7138;49.246;9.100;2023-03-14T12:17:19;96836.97;;;11.08;100.00
14120;BME280;7138;49.246;9.100;2023-03-14T12:19:46;96846.63;;;11.03;100.00
14120;BME280;7138;49.246;9.100;2023-03-14T12:22:24;96853.63;;;11.00;100.00
14120;BME280;7138;49.246;9.100;2023-03-14T12:24:54;96856.16;;;10.73;100.00
14120;BME280;7138;49.246;9.100;2023-03-14T12:27:43;96879.50;;;10.72;100.00
14120;BME280;7138;49.246;9.100;2023-03-14T12:30:23;96894.44;;;10.62;100.00
14120;BME280;7138;49.246;9.100;2023-03-14T12:33:18;96934.44;;;10.49;100.00
14120;BME280;7138;49.246;9.100;2023-03-14T12:35:46;96919.56;;;10.28;100.00
14120;BME280;7138;49.246;9.100;2023-03-14T12:38:18;96935.88;;;10.30;100.00
14120;BME280;7138;49.246;9.100;2023-03-14T12:40:56;96942.25;;;10.17;100.00
14120;BME280;7138;49.246;9.100;2023-03-14T12:43:26;96957.19;;;10.06;100.00
14120;BME280;7138;49.246;9.100;2023-03-14T12:46:09;96979.56;;;10.05;100.00
14120;BME280;7138;49.246;9.100;2023-03-14T12:48:40;96969.94;;;9.78;100.00
14120;BME280;7138;49.246;9.100;2023-03-14T12:51:13;97002.56;;;9.80;100.00
14120;BME280;7138;49.246;9.100;2023-03-14T12:54:06;97015.78;;;9.68;100.00
14120;BME280;7138;49.246;9.100;2023-03-14T12:56:47;97009.91;;;9.62;99.35
14120;BME280;7138;49.246;9.100;2023-03-14T12:59:31;97029.00;;;9.55;99.12
14120;BME280;7138;49.246;9.100;2023-03-14T13:02:02;97032.91;;;9.36;97.73
14120;BME280;7138;49.246;9.100;2023-03-14T13:04:43;97035.72;;;9.25;97.25
14120;BME280;7138;49.246;9.100;2023-03-14T13:07:11;97054.59;;;9.27;97.21
14120;BME280;7138;49.246;9.100;2023-03-14T13:10:00;97074.53;;;9.19;96.69
14120;BME280;7138;49.246;9.100;2023-03-14T13:12:29;97079.59;;;9.23;97.08
14120;BME280;7138;49.246;9.100;2023-03-14T13:14:59;97085.16;;;9.05;93.82